Station: Kadina

  Atmospheric Gas Attenuation - ITU Rec 676-11   --------------- db/100km ---------------
Date Time Temp RH % AH g/m3 Dew Point Wind Direction Speed kph Gust kph Barometer mB Rainfall Since 9am 24GHz 47GHz 76GHz 122GHz 134GHz 241GHz
15 00:00 12.5 92 10.12 11.2 24 32 1016.7 0.8 22.9 29.0 47.0 123.7 121.4 418.8
14 23:50 12.5 92 10.12 11.2 28 30 1016.8 0.8 22.9 29.0 47.0 123.7 121.4 418.8
14 23:40 12.6 93 10.29 11.5 30 32 1016.9 0.8 23.3 29.3 47.7 125.5 123.7 426.8
14 23:30 12.7 92 10.24 11.4 28 37 1016.8 0.8 23.2 29.1 47.4 124.7 122.8 423.7
14 23:20 13 92 10.43 11.7 32 35 1016.9 0.8 23.6 29.4 48.1 126.5 125.1 431.5
14 23:10 13.3 92 10.63 12 30 33 1016.9 0.8 24.0 29.6 48.8 128.3 127.4 439.8
14 23:00 13.5 91 10.64 12.1 22 30 1016.7 0.8 24.0 29.6 48.7 128.1 127.2 439.1
14 22:50 13.5 91 10.64 12.1 19 20 1016.7 0.8 24.0 29.6 48.7 128.1 127.2 439.1
14 22:40 13.4 91 10.58 12 24 28 1016.5 0.8 23.9 29.5 48.5 127.5 126.5 436.6
14 22:30 13.6 91 10.71 12.2 24 32 1016.2 0.8 24.1 29.6 48.9 128.6 128.0 441.9
14 22:20 13.7 91 10.78 12.3 22 26 1016.1 0.8 24.3 29.7 49.1 129.3 128.8 444.8
14 22:10 13.9 91 10.91 12.5 26 30 1015.9 0.8 24.5 29.9 49.5 130.4 130.3 450.0
14 22:00 14.1 90 10.92 12.5 22 30 1015.8 0.8 24.5 29.8 49.5 130.2 130.1 449.3
14 21:50 14.2 90 10.99 12.6 22 26 1015.8 0.8 24.7 29.9 49.7 130.8 130.9 452.2
14 21:40 14.3 90 11.06 12.7 30 33 1015.7 0.8 24.8 30.0 49.9 131.5 131.7 455.1
14 21:30 14.2 90 10.99 12.6 26 33 1015.6 0.8 24.7 29.9 49.7 130.8 130.9 452.2
14 21:20 14.2 89 10.87 12.4 26 32 1015.7 0.8 24.4 29.7 49.2 129.4 129.2 446.2
14 21:10 14.6 89 11.14 12.8 26 30 1015.7 0.8 25.0 30.0 50.1 131.9 132.4 457.3
14 21:00 14.8 90 11.4 13.2 24 33 1015.5 0.8 25.5 30.4 51.1 134.5 135.7 469.1
14 20:50 14.8 90 11.4 13.2 24 30 1015.5 0.8 25.5 30.4 51.1 134.5 135.7 469.1
14 20:40 14.7 89 11.21 12.9 30 33 1015.4 0.8 25.1 30.1 50.3 132.5 133.2 460.1
14 20:30 14.6 88 11.01 12.6 30 39 1015.3 0.8 24.7 29.8 49.5 130.3 130.5 450.7
14 20:20 14.7 87 10.95 12.6 30 33 1015.3 0.8 24.6 29.6 49.2 129.5 129.5 447.2
14 20:10 14.8 87 11.02 12.7 28 32 1015.5 0.8 24.7 29.7 49.4 130.1 130.3 450.1
14 20:00 14.7 86 10.83 12.4 28 37 1015.3 0.8 24.3 29.4 48.7 128.1 127.8 441.2
14 19:50 14.6 88 11.01 12.6 30 35 1015.4 0.8 24.7 29.8 49.5 130.3 130.5 450.8
14 19:40 14.6 87 10.89 12.5 26 32 1015.3 0.8 24.5 29.6 49.0 128.9 128.8 444.8
14 19:30 14.5 87 10.82 12.4 26 32 1015.2 0.8 24.3 29.5 48.7 128.3 127.9 441.8
14 19:20 14.6 86 10.76 12.3 26 30 1015.3 0.8 24.2 29.3 48.4 127.5 126.9 438.3
14 19:10 15 84 10.77 12.3 24 28 1015.4 0.8 24.2 29.2 48.2 126.9 126.4 436.6
14 19:00 15 84 10.77 12.3 24 33 1015.3 0.8 24.2 29.2 48.2 126.9 126.4 436.6
14 18:50 14.5 86 10.7 12.2 20 22 1015.4 0.8 24.0 29.3 48.2 126.9 126.3 436.0
14 18:40 14.5 86 10.7 12.2 19 22 1015.3 0.8 24.0 29.3 48.2 126.9 126.3 436.0
14 18:30 14.7 87 10.95 12.6 19 22 1015 0.8 24.6 29.6 49.2 129.4 129.4 447.1
14 18:20 14.7 88 11.08 12.7 19 20 1014.9 0.8 24.9 29.8 49.7 130.9 131.3 453.5
14 18:10 14.7 89 11.21 12.9 17 20 1015.1 0.8 25.1 30.1 50.3 132.5 133.1 460.0
14 18:00 14.6 88 11.01 12.6 13 15 1015 0.8 24.7 29.8 49.5 130.3 130.4 450.6
14 17:50 14.8 87 11.02 12.7 13 15 1014.9 0.8 24.7 29.7 49.4 130.1 130.2 449.9
14 17:40 15 86 11.03 12.7 15 17 1014.7 0.8 24.7 29.6 49.3 129.8 130.0 449.2
14 17:30 15.3 86 11.23 13 13 17 1014.6 0.8 25.1 29.9 50.0 131.6 132.3 457.3
14 17:20 15.6 85 11.3 13.1 17 19 1014.5 0.8 25.3 29.9 50.1 131.9 132.8 458.9
14 17:10 15.9 83 11.24 13 15 17 1014.5 0.8 25.1 29.7 49.6 130.7 131.4 454.2
14 17:00 16.1 81 11.1 12.8 19 26 1014.4 0.8 24.8 29.4 48.9 128.7 129.1 446.1
14 16:50 16.5 78 10.95 12.7 19 24 1014.2 0.8 24.5 29.0 48.0 126.4 126.3 436.5
14 16:40 16.9 77 11.07 12.8 20 24 1014.1 0.8 24.7 29.1 48.3 127.1 127.3 440.0
14 16:30 17.1 76 11.06 12.8 20 26 1014 0.8 24.7 29.0 48.1 126.6 126.8 438.4
14 16:20 17.2 78 11.42 13.3 19 20 1014 0.8 25.4 29.5 49.5 130.5 131.6 455.2
14 16:10 17.1 77 11.21 13 22 24 1014 0.8 25.0 29.2 48.7 128.3 128.9 445.6
14 16:00 17.2 77 11.28 13.1 20 26 1014 0.8 25.1 29.3 49.0 128.9 129.7 448.4
14 15:50 17.3 75 11.05 12.8 20 24 1013.9 0.8 24.6 28.9 47.9 126.2 126.4 436.7
14 15:40 17.3 76 11.2 13 20 24 1013.8 0.8 25.0 29.1 48.5 127.8 128.4 443.9
14 15:30 17.3 76 11.2 13 20 30 1013.7 0.8 25.0 29.1 48.5 127.8 128.4 443.9
14 15:20 17.5 76 11.33 13.2 19 22 1013.7 0.8 25.2 29.3 49.0 128.9 129.9 449.0
14 15:10 17.4 73 10.82 12.5 22 28 1013.6 0.8 24.1 28.4 46.9 123.4 123.0 425.1
14 15:00 17.9 71 10.84 12.6 24 33 1013.6 0.8 24.2 28.3 46.7 122.8 122.5 423.3
14 14:50 17.8 73 11.08 12.9 22 28 1013.6 0.8 24.7 28.8 47.7 125.7 125.9 435.2
14 14:40 17.8 74 11.23 13.1 26 33 1013.5 0.8 25.0 29.0 48.3 127.3 128.0 442.4
14 14:30 17.7 76 11.47 13.4 24 32 1013.5 0.8 25.5 29.4 49.4 130.2 131.4 454.5
14 14:20 17.6 75 11.25 13.1 28 30 1013.6 0.8 25.0 29.1 48.6 127.9 128.6 444.5
14 14:10 17.7 78 11.77 13.8 24 28 1013.6 0.8 26.1 30.0 50.7 133.5 135.6 469.1
14 14:00 17.4 79 11.71 13.7 28 33 1013.7 0.8 26.0 30.0 50.6 133.4 135.3 468.0
14 13:50 17.5 78 11.63 13.6 30 32 1013.7 0.8 25.9 29.8 50.2 132.3 134.0 463.5
14 13:40 17.5 78 11.63 13.6 26 35 1013.8 0.8 25.9 29.8 50.2 132.3 134.0 463.5
14 13:30 17.2 77 11.28 13.1 32 41 1013.7 0.8 25.1 29.3 48.9 128.9 129.7 448.3
14 13:20 17.1 78 11.35 13.2 32 41 1013.8 0.8 25.3 29.4 49.3 129.8 130.8 452.3
14 13:10 17.4 79 11.71 13.7 35 39 1013.8 0.8 26.0 30.0 50.6 133.4 135.3 468.0
14 13:00 17.3 80 11.78 13.8 35 44 1013.8 0.8 26.2 30.1 51.0 134.4 136.5 472.1
14 12:50 17.1 80 11.64 13.6 41 46 1013.8 0.8 25.9 29.9 50.5 133.1 134.9 466.4
14 12:40 16.8 80 11.44 13.3 39 46 1013.9 0.8 25.5 29.7 49.9 131.4 132.6 458.5
14 12:30 17.1 83 12.08 14.2 35 46 1014 0.8 26.8 30.7 52.4 138.2 141.1 488.2
14 12:20 16.8 81 11.58 13.5 39 43 1014 0.8 25.8 30.0 50.5 133.0 134.6 465.4
14 12:10 17 85 12.3 14.5 30 35 1014 0.8 27.3 31.1 53.5 140.9 144.4 499.8
14 12:00 16.7 87 12.36 14.5 30 37 1014.1 0.8 27.5 31.4 53.9 142.2 145.9 504.8
14 11:50 16.3 89 12.35 14.5 32 35 1014.2 0.8 27.5 31.5 54.2 142.8 146.5 507.0
14 11:40 16 91 12.4 14.5 33 37 1014.4 0.8 27.6 31.7 54.6 144.0 147.9 511.6
14 11:30 15.4 91 11.96 13.9 30 35 1014.5 0.8 26.7 31.1 53.1 139.9 142.6 493.2
14 11:20 15.5 90 11.9 13.9 30 35 1014.7 0.8 26.6 31.0 52.8 139.1 141.6 489.6
14 11:10 15.2 90 11.68 13.6 30 35 1014.8 0.8 26.1 30.7 52.0 137.0 139.0 480.4
14 11:00 15.1 90 11.61 13.5 30 39 1014.9 0.8 26.0 30.6 51.8 136.4 138.1 477.6
14 10:50 15.1 89 11.48 13.3 30 33 1015.1 0.8 25.7 30.4 51.2 134.9 136.3 471.1
14 10:40 15.2 89 11.55 13.4 26 30 1015.2 0.8 25.8 30.5 51.5 135.6 137.1 474.0
14 10:30 15.1 89 11.48 13.3 28 33 1015.1 0.8 25.7 30.4 51.2 134.9 136.3 471.1
14 10:20 14.8 89 11.27 13 28 33 1015.3 0.8 25.3 30.2 50.5 133.0 133.8 462.5
14 10:10 14.8 88 11.15 12.8 26 30 1015.3 0.8 25.0 29.9 50.0 131.6 132.1 456.5
14 10:00 14.7 89 11.21 12.9 26 32 1015.1 0.8 25.1 30.1 50.3 132.5 133.1 460.0
14 09:50 14.9 89 11.34 13.1 22 28 1015.2 0.8 25.4 30.2 50.7 133.6 134.7 465.4
14 09:40 14.6 89 11.14 12.8 26 28 1015.2 0.8 25.0 30.0 50.1 131.8 132.3 457.2
14 09:30 14.7 90 11.33 13.1 22 24 1014.9 0.8 25.4 30.3 50.8 133.8 134.8 466.0
14 09:20 14.3 90 11.06 12.7 22 26 1014.8 0.8 24.8 29.9 49.9 131.4 131.7 454.8
14 09:10 14.1 89 10.8 12.3 24 26 1014.8 0.8 24.3 29.6 48.9 128.7 128.3 443.0
14 09:00 14.4 89 11 12.6 22 28 1014.8 0 24.7 29.8 49.6 130.5 130.6 451.2
14 08:50 14.1 89 10.8 12.3 24 26 1014.7 6.6 24.3 29.6 48.9 128.7 128.3 443.0
14 08:40 13.9 89 10.67 12.1 20 24 1014.6 6.6 24.0 29.4 48.4 127.5 126.8 437.6
14 08:30 13.6 90 10.59 12 17 20 1014.7 6.6 23.9 29.4 48.3 127.1 126.1 435.4
14 08:20 13.5 90 10.53 11.9 15 17 1014.7 6.6 23.7 29.3 48.1 126.5 125.4 433.0
14 08:10 13.5 90 10.53 11.9 19 20 1014.8 6.6 23.7 29.3 48.1 126.6 125.4 433.0
14 08:00 13.4 91 10.58 12 20 26 1014.7 6.6 23.9 29.4 48.4 127.3 126.3 436.0
14 07:50 13.1 92 10.5 11.8 20 24 1014.7 6.6 23.7 29.4 48.2 126.8 125.7 433.7
14 07:40 12.9 91 10.26 11.5 19 20 1014.6 6.6 23.2 29.0 47.3 124.4 122.6 422.9
14 07:30 12.8 91 10.19 11.4 17 19 1014.7 6.6 23.1 28.9 47.0 123.8 121.7 420.0

Last Refresh: 15-Jun-2024 00:13:12

Bureau of Meteorology